< Typhoon 200720 2007 Season Typhoon 200722 >
Typhoon 200721 (PEIPAH)
General InformationTrack Information on Google MapsDetailed Wind InformationAccess Analytics MapList of All Images || Disaster Info.WeblogTrackbackTyphoon FrontResourceGoogle EarthGE AnimationAtom FeedGeoJSON
Detalied Best Track (Time Zone = UTC)
Year Month Day Hour Lat. Long. Pressure (hPa) Wind (kt) Class Image Chart
2007 11 1 18 18.1 132.5 1006 0 2 Image Chart
2007 11 2 00 18.2 132.2 1006 0 2 Image Chart
2007 11 2 06 18.2 131.8 1004 0 2 Image Chart
2007 11 2 12 18.3 130.8 1004 0 2 Image Chart
2007 11 2 18 18.3 129.9 1004 0 2 Image Chart
2007 11 3 00 18.2 129.0 1004 0 2 Image Chart
2007 11 3 06 18.1 128.4 1002 0 2 Image Chart
2007 11 3 12 17.8 127.3 1000 35 3 Image Chart
2007 11 3 18 17.4 125.9 994 45 3 Image Chart
2007 11 4 00 17.1 124.8 992 50 4 Image Chart
2007 11 4 06 16.8 123.7 985 55 4 Image Chart
2007 11 4 12 16.8 122.5 980 60 4 Image Chart
2007 11 4 18 17.2 121.1 985 55 4 Image Chart
2007 11 5 00 17.6 119.9 990 50 4 Image Chart
2007 11 5 06 17.8 119.2 992 45 3 Image Chart
2007 11 5 12 18.0 119.0 990 50 4 Image Chart
2007 11 5 18 18.2 118.8 985 55 4 Image Chart
2007 11 6 00 18.4 118.7 980 60 4 Image Chart
2007 11 6 06 18.6 118.5 975 65 5 Image Chart
2007 11 6 12 18.6 118.3 970 70 5 Image Chart
2007 11 6 18 18.4 117.8 970 70 5 Image Chart
2007 11 7 00 18.2 117.0 975 65 5 Image Chart
2007 11 7 06 17.9 116.1 980 60 4 Image Chart
2007 11 7 12 17.6 115.2 990 50 4 Image Chart
2007 11 7 18 17.2 114.6 990 45 3 Image Chart
2007 11 8 00 16.8 114.2 992 40 3 Image Chart
2007 11 8 06 16.3 113.6 994 35 3 Image Chart
2007 11 8 12 15.8 113.0 998 35 3 Image Chart
2007 11 8 18 14.9 112.3 1002 0 2 Image Chart
2007 11 9 00 14.0 111.8 1004 0 2 Image Chart
2007 11 9 06 13.0 111.2 1004 0 2 Image Chart
2007 11 9 12 12.3 110.7 1004 0 2 Image Chart
2007 11 9 18 11.7 110.2 1004 0 2 Image Chart
2007 11 10 00 11.2 109.2 1006 0 2 Image Chart
2007 11 10 06 10.9 107.7 1006 0 2 Image Chart
2007 11 10 12 10.7 107.1 1006 0 2 Image Chart
Japan Meteorological Agency Best Track Data | Correction Date : 2007-12-14
< Typhoon 200720 2007 Season Typhoon 200722 >

Help